createdAt,value
2022-09-07T00:00:59.353Z,101564.50
2022-09-07T00:03:27.582Z,101569.75
2022-09-07T00:05:55.753Z,101562.75
2022-09-07T00:08:27.072Z,101564.50
2022-09-07T00:10:57.349Z,101567.19
2022-09-07T00:13:28.688Z,101561.81
2022-09-07T00:15:56.831Z,101558.09
2022-09-07T00:18:25.188Z,101561.81
2022-09-07T00:20:59.487Z,101556.41
2022-09-07T00:23:28.953Z,101560.06
2022-09-07T00:26:01.286Z,101546.47
2022-09-07T00:28:31.810Z,101546.91
2022-09-07T00:31:00.208Z,101560.06
2022-09-07T00:33:28.556Z,101559.25
2022-09-07T00:35:56.555Z,101560.94
2022-09-07T00:38:24.625Z,101554.69
2022-09-07T00:40:53.400Z,101561.81
2022-09-07T00:43:34.411Z,101558.38
2022-09-07T00:46:03.356Z,101563.75
2022-09-07T00:48:36.386Z,101563.75
2022-09-07T00:51:07.861Z,101561.06
2022-09-07T00:53:40.112Z,101556.69
2022-09-07T00:56:09.099Z,101541.06
2022-09-07T00:58:42.237Z,101549.59
2022-09-07T01:01:10.974Z,101553.13
2022-09-07T01:03:45.029Z,101548.75
2022-09-07T01:06:17.988Z,101545.91
2022-09-07T01:08:48.863Z,101551.28
2022-09-07T01:11:18.136Z,101551.28
2022-09-07T01:13:49.066Z,101549.59
2022-09-07T01:16:31.582Z,101545.91
2022-09-07T01:19:15.130Z,101545.91
2022-09-07T01:21:58.272Z,101544.22
2022-09-07T01:25:01.813Z,101540.78
2022-09-07T01:28:01.651Z,101548.88
2022-09-07T01:30:33.193Z,101539.09
2022-09-07T01:33:24.677Z,101539.09
2022-09-07T01:36:01.524Z,101545.31
2022-09-07T01:38:37.517Z,101544.50
2022-09-07T01:41:11.119Z,101539.09
2022-09-07T01:43:47.185Z,101538.25
2022-09-07T01:46:19.982Z,101523.50
2022-09-07T01:48:52.014Z,101539.09
2022-09-07T01:51:22.602Z,101531.03
2022-09-07T01:53:54.966Z,101540.78
2022-09-07T01:56:29.215Z,101539.25
2022-09-07T01:59:02.285Z,101537.38
2022-09-07T02:01:34.804Z,101502.72
2022-09-07T02:04:08.744Z,101522.63
2022-09-07T02:06:43.891Z,101502.44
2022-09-07T02:09:17.163Z,101527.16
2022-09-07T02:11:47.854Z,101533.72
2022-09-07T02:14:24.147Z,101526.59
2022-09-07T02:16:59.611Z,101522.06
2022-09-07T02:19:31.391Z,101522.94
2022-09-07T02:22:03.648Z,101522.94
2022-09-07T02:24:37.838Z,101512.16
2022-09-07T02:27:12.230Z,101520.38
2022-09-07T02:29:41.798Z,101515.81
2022-09-07T02:32:09.771Z,101521.22
2022-09-07T02:34:38.202Z,101514.13
2022-09-07T02:37:10.181Z,101499.06
2022-09-07T02:39:38.603Z,101512.16
2022-09-07T02:42:07.121Z,101515.81
2022-09-07T02:44:38.778Z,101515.81
2022-09-07T02:47:18.626Z,101517.56
2022-09-07T02:50:13.398Z,101511.31
2022-09-07T02:52:51.305Z,101500.81
2022-09-07T02:55:31.204Z,101507.06
2022-09-07T02:58:13.023Z,101506.19
2022-09-07T03:00:48.887Z,101499.38
2022-09-07T03:03:24.802Z,101508.03
2022-09-07T03:06:00.127Z,101504.50
2022-09-07T03:08:33.524Z,101464.44
2022-09-07T03:11:02.472Z,101500.50
2022-09-07T03:13:31.878Z,101499.53
2022-09-07T03:16:00.271Z,101502.22
2022-09-07T03:18:30.034Z,101500.50
2022-09-07T03:20:58.410Z,101502.34
2022-09-07T03:23:26.364Z,101501.34
2022-09-07T03:25:54.514Z,101505.88
2022-09-07T03:28:22.495Z,101503.19
2022-09-07T03:30:50.504Z,101506.88
2022-09-07T03:33:18.890Z,101508.56
2022-09-07T03:35:58.480Z,101505.88
2022-09-07T03:38:26.652Z,101513.94
2022-09-07T03:41:00.005Z,101509.56
2022-09-07T03:43:28.379Z,101506.00
2022-09-07T03:46:00.818Z,101466.69
2022-09-07T03:48:29.399Z,101506.75
2022-09-07T03:51:00.093Z,101505.03
2022-09-07T03:53:28.504Z,101512.13
2022-09-07T03:56:00.998Z,101505.59
2022-09-07T03:58:31.126Z,101503.03
2022-09-07T04:00:59.755Z,101493.13
2022-09-07T04:03:28.621Z,101489.44
2022-09-07T04:05:57.425Z,101496.56
2022-09-07T04:08:27.699Z,101496.56
2022-09-07T04:10:57.727Z,101450.56
2022-09-07T04:13:26.220Z,101489.59
2022-09-07T04:15:54.618Z,101486.75
2022-09-07T04:18:22.678Z,101493.00
2022-09-07T04:20:51.139Z,101481.63
2022-09-07T04:23:19.998Z,101485.78
2022-09-07T04:25:50.015Z,101482.38
2022-09-07T04:28:19.329Z,101489.44
2022-09-07T04:30:47.998Z,101482.38
2022-09-07T04:33:16.126Z,101490.31
2022-09-07T04:35:44.385Z,101498.25
2022-09-07T04:38:16.401Z,101501.94
2022-09-07T04:40:44.504Z,101505.59
2022-09-07T04:43:16.600Z,101474.97
2022-09-07T04:45:44.641Z,101488.63
2022-09-07T04:48:12.591Z,101489.44
2022-09-07T04:50:40.506Z,101480.41
2022-09-07T04:53:08.448Z,101491.16
2022-09-07T04:55:36.370Z,101477.69
2022-09-07T04:58:04.335Z,101486.75
2022-09-07T05:00:33.624Z,101471.59
2022-09-07T05:03:01.555Z,101455.13
2022-09-07T05:05:29.463Z,101476.38
2022-09-07T05:07:57.614Z,101480.66
2022-09-07T05:10:25.667Z,101474.28
2022-09-07T05:12:53.679Z,101467.06
2022-09-07T05:15:21.727Z,101482.38
2022-09-07T05:17:51.306Z,101471.88
2022-09-07T05:20:20.460Z,101471.59
2022-09-07T05:22:48.609Z,101475.28
2022-09-07T05:25:16.575Z,101481.38
2022-09-07T05:27:44.504Z,101485.78
2022-09-07T05:33:04.101Z,101482.38
2022-09-07T05:35:32.220Z,101480.66
2022-09-07T05:38:00.208Z,101481.50
2022-09-07T05:40:31.843Z,101470.16
2022-09-07T05:43:00.077Z,101480.66
2022-09-07T05:45:28.104Z,101461.19
2022-09-07T05:47:56.541Z,101474.28
2022-09-07T05:50:25.833Z,101476.97
2022-09-07T05:52:53.926Z,101480.66
2022-09-07T05:55:30.048Z,101472.59
2022-09-07T05:57:58.671Z,101475.28
2022-09-07T06:00:26.602Z,101475.28
2022-09-07T06:02:54.676Z,101479.66
2022-09-07T06:05:22.818Z,101474.56
2022-09-07T06:07:52.927Z,101473.56
2022-09-07T06:13:09.671Z,101472.72
2022-09-07T06:15:37.614Z,101458.81
2022-09-07T06:18:05.528Z,101475.28
2022-09-07T06:20:33.438Z,101471.88
2022-09-07T06:23:02.762Z,101475.84
2022-09-07T06:25:30.739Z,101464.34
2022-09-07T06:27:59.679Z,101469.19
2022-09-07T06:30:27.695Z,101468.19
2022-09-07T06:32:55.608Z,101478.94
2022-09-07T06:35:23.556Z,101473.56
2022-09-07T06:37:51.525Z,101476.25
2022-09-07T06:40:20.856Z,101476.25
2022-09-07T06:42:48.878Z,101473.84
2022-09-07T06:45:16.860Z,101479.94
2022-09-07T06:47:44.771Z,101475.56
2022-09-07T06:50:12.973Z,101480.66
2022-09-07T06:55:30.358Z,101480.66
2022-09-07T06:57:58.308Z,101477.13
2022-09-07T07:00:26.498Z,101468.19
2022-09-07T07:02:54.543Z,101471.72
2022-09-07T07:05:22.583Z,101471.59
2022-09-07T07:07:50.722Z,101459.94
2022-09-07T07:10:23.715Z,101461.81
2022-09-07T07:12:57.659Z,101465.34
2022-09-07T07:15:28.498Z,101464.50
2022-09-07T07:18:02.528Z,101459.13
2022-09-07T07:20:42.777Z,101463.66
2022-09-07T07:23:12.355Z,101454.72
2022-09-07T07:25:41.709Z,101459.13
2022-09-07T07:31:00.363Z,101463.66
2022-09-07T07:33:32.088Z,101460.09
2022-09-07T07:36:11.358Z,101471.88
2022-09-07T07:44:21.107Z,101465.63
2022-09-07T07:46:50.223Z,101425.31
2022-09-07T07:49:18.357Z,101466.47
2022-09-07T07:54:36.166Z,101472.72
2022-09-07T07:57:04.339Z,101469.03
2022-09-07T07:59:33.695Z,101469.91
2022-09-07T08:02:04.817Z,101464.50
2022-09-07T08:04:33.850Z,101466.22
2022-09-07T08:07:05.560Z,101450.28
2022-09-07T08:09:38.125Z,101474.28
2022-09-07T08:12:06.207Z,101475.28
2022-09-07T08:14:40.953Z,101476.97
2022-09-07T08:17:10.029Z,101470.72
2022-09-07T08:19:38.073Z,101466.22
2022-09-07T08:22:06.450Z,101474.28
2022-09-07T08:24:34.733Z,101476.84
2022-09-07T08:27:02.983Z,101478.66
2022-09-07T08:29:34.614Z,101469.91
2022-09-07T08:32:06.695Z,101469.91
2022-09-07T08:34:37.364Z,101471.88
2022-09-07T08:37:05.515Z,101476.25
2022-09-07T08:39:33.808Z,101470.16
2022-09-07T08:42:23.784Z,101479.81
2022-09-07T08:44:57.927Z,101469.03
2022-09-07T08:47:34.908Z,101462.78
2022-09-07T08:50:07.867Z,101466.47
2022-09-07T08:52:46.820Z,101471.88
2022-09-07T08:55:20.545Z,101471.88
2022-09-07T08:57:55.240Z,101470.16
2022-09-07T09:00:23.743Z,101466.47
2022-09-07T09:05:50.020Z,101466.47
2022-09-07T09:08:32.733Z,101451.16
2022-09-07T09:11:07.476Z,101439.22
2022-09-07T09:13:47.959Z,101419.50
2022-09-07T09:16:21.868Z,101455.97
2022-09-07T09:19:23.556Z,101453.00
2022-09-07T09:22:02.649Z,101459.41
2022-09-07T09:24:37.952Z,101458.41
2022-09-07T09:27:06.428Z,101455.97
2022-09-07T09:29:34.783Z,101457.41
2022-09-07T09:32:32.865Z,101463.50
2022-09-07T09:35:05.590Z,101455.44
2022-09-07T09:37:38.428Z,101455.44
2022-09-07T09:40:09.432Z,101451.03
2022-09-07T09:42:38.900Z,101448.34
2022-09-07T09:45:14.621Z,101453.75
2022-09-07T09:47:42.843Z,101448.34
2022-09-07T09:53:26.779Z,101452.88
2022-09-07T09:55:55.934Z,101450.03
2022-09-07T10:01:27.100Z,101431.75
2022-09-07T10:03:56.324Z,101432.19
2022-09-07T10:06:27.282Z,101438.41
2022-09-07T10:08:58.588Z,101444.66
2022-09-07T10:14:37.573Z,101411.31
2022-09-07T10:17:14.472Z,101440.97
2022-09-07T10:19:44.614Z,101436.44
2022-09-07T10:22:32.228Z,101437.59
2022-09-07T10:25:01.392Z,101441.97
2022-09-07T10:27:36.639Z,101437.31
2022-09-07T10:30:12.206Z,101431.91
2022-09-07T10:32:52.253Z,101392.19
2022-09-07T10:35:27.209Z,101414.91
2022-09-07T10:38:06.104Z,101376.59
2022-09-07T10:40:38.554Z,101410.38
2022-09-07T10:43:21.811Z,101415.75
2022-09-07T10:49:21.613Z,101414.91
2022-09-07T10:52:01.259Z,101407.97
2022-09-07T10:54:39.412Z,101412.94
2022-09-07T10:57:22.223Z,101415.75
2022-09-07T11:00:07.925Z,101401.28
2022-09-07T11:05:57.582Z,101404.97
2022-09-07T11:14:25.616Z,101392.34
2022-09-07T11:16:57.904Z,101386.81
2022-09-07T11:19:37.889Z,101378.88
2022-09-07T11:22:17.295Z,101374.34
2022-09-07T11:27:45.998Z,101373.50
2022-09-07T11:30:21.144Z,101367.28
2022-09-07T11:32:59.359Z,101376.34
2022-09-07T11:35:36.372Z,101364.72
2022-09-07T11:38:14.269Z,101365.56
2022-09-07T11:40:52.331Z,101368.09
2022-09-07T11:43:26.089Z,101368.09
2022-09-07T11:45:59.797Z,101351.41
2022-09-07T11:48:34.298Z,101346.56
2022-09-07T11:51:09.794Z,101347.72
2022-09-07T11:53:41.140Z,101347.44
2022-09-07T11:56:18.981Z,101343.72
2022-09-07T11:59:28.190Z,101349.13
2022-09-07T12:02:12.612Z,101342.03
2022-09-07T12:04:58.319Z,101345.75
2022-09-07T12:07:56.558Z,101344.16
2022-09-07T12:10:38.921Z,101331.56
2022-09-07T12:13:30.036Z,101334.25
2022-09-07T12:16:05.095Z,101330.69
2022-09-07T12:19:02.907Z,101338.63
2022-09-07T12:21:41.672Z,101327.84
2022-09-07T12:24:48.577Z,101329.00
2022-09-07T12:27:39.761Z,101315.69
2022-09-07T12:30:52.078Z,101317.66
2022-09-07T12:33:33.233Z,101323.03
2022-09-07T12:36:02.245Z,101274.41
2022-09-07T12:39:07.355Z,101327.59
2022-09-07T12:41:44.593Z,101319.38
2022-09-07T12:44:20.696Z,101284.47
2022-09-07T12:46:52.991Z,101257.56
2022-09-07T12:49:44.820Z,101296.09
2022-09-07T12:52:34.329Z,101310.28
2022-09-07T12:55:29.726Z,101306.88
2022-09-07T12:58:20.389Z,101292.00
2022-09-07T13:01:05.259Z,101307.03
2022-09-07T13:03:56.983Z,101288.75
2022-09-07T13:09:35.523Z,101295.53
2022-09-07T13:15:29.647Z,101293.56
2022-09-07T13:17:58.411Z,101298.94
2022-09-07T13:20:36.134Z,101296.53
2022-09-07T13:23:26.655Z,101286.63
2022-09-07T13:25:58.994Z,101291.31
2022-09-07T13:28:32.771Z,101295.53
2022-09-07T13:31:09.971Z,101293.56
2022-09-07T13:33:50.447Z,101297.25
2022-09-07T13:36:36.108Z,101295.25
2022-09-07T13:39:08.981Z,101289.88
2022-09-07T13:41:42.478Z,101289.88
2022-09-07T13:44:26.390Z,101281.38
2022-09-07T13:47:03.910Z,101286.50
2022-09-07T13:49:56.015Z,101279.66
2022-09-07T13:52:33.358Z,101281.66
2022-09-07T13:55:22.651Z,101286.78
2022-09-07T13:58:04.109Z,101273.59
2022-09-07T14:00:32.999Z,101278.25
2022-09-07T14:03:07.193Z,101272.88
2022-09-07T14:05:36.266Z,101281.38
2022-09-07T14:08:04.784Z,101280.66
2022-09-07T14:10:34.316Z,101271.88
2022-09-07T14:13:08.467Z,101262.38
2022-09-07T14:15:40.798Z,101265.38
2022-09-07T14:18:14.012Z,101261.81
2022-09-07T14:20:46.163Z,101253.03
2022-09-07T14:23:23.010Z,101263.50
2022-09-07T14:26:17.560Z,101256.44
2022-09-07T14:28:47.709Z,101264.50
2022-09-07T14:31:17.950Z,101254.47
2022-09-07T14:33:50.532Z,101257.84
2022-09-07T14:36:41.849Z,101253.44
2022-09-07T14:39:09.256Z,101247.34
2022-09-07T14:41:41.529Z,101252.72
2022-09-07T14:44:28.603Z,101247.34
2022-09-07T14:46:57.534Z,101245.53
2022-09-07T14:49:26.209Z,101252.72
2022-09-07T14:51:56.073Z,101247.34
2022-09-07T14:54:27.868Z,101252.06
2022-09-07T14:57:25.793Z,101251.03
2022-09-07T14:59:57.195Z,101243.97
2022-09-07T15:02:33.293Z,101269.75
2022-09-07T15:05:20.466Z,101192.41
2022-09-07T15:07:50.334Z,101261.81
2022-09-07T15:10:29.936Z,101256.44
2022-09-07T15:13:01.664Z,101251.03
2022-09-07T15:15:32.212Z,101249.34
2022-09-07T15:18:08.187Z,101218.19
2022-09-07T15:20:39.770Z,101253.31
2022-09-07T15:23:11.674Z,101247.63
2022-09-07T15:25:40.812Z,101254.47
2022-09-07T15:34:00.975Z,101248.34
2022-09-07T15:36:31.936Z,101250.75
2022-09-07T15:39:01.221Z,101200.88
2022-09-07T15:41:31.195Z,101240.84
2022-09-07T15:44:00.974Z,101229.22
2022-09-07T15:46:29.114Z,101236.28
2022-09-07T15:48:58.392Z,101234.91
2022-09-07T15:54:16.006Z,101238.31
2022-09-07T15:57:48.465Z,101239.13
2022-09-07T15:59:34.922Z,101229.50
2022-09-07T16:02:03.364Z,101234.03
2022-09-07T16:04:31.857Z,101246.38
2022-09-07T16:07:01.591Z,101238.84
2022-09-07T16:09:29.899Z,101245.09
2022-09-07T16:13:00.033Z,101232.06
2022-09-07T16:14:47.645Z,101243.13
2022-09-07T16:20:05.036Z,101231.47
2022-09-07T16:25:22.567Z,101239.41
2022-09-07T16:27:50.693Z,101237.72
2022-09-07T16:30:20.392Z,101248.22
2022-09-07T16:32:50.885Z,101242.81
2022-09-07T16:35:19.040Z,101244.50
2022-09-07T16:40:35.283Z,101224.13
2022-09-07T16:43:03.354Z,101252.44
2022-09-07T16:48:21.215Z,101246.22
2022-09-07T16:51:00.337Z,101239.13
2022-09-07T16:53:30.472Z,101241.97
2022-09-07T16:56:02.301Z,101233.03
2022-09-07T16:58:38.952Z,101235.44
2022-09-07T17:01:10.459Z,101235.44
2022-09-07T17:03:39.286Z,101234.59
2022-09-07T17:06:09.411Z,101232.88
2022-09-07T17:08:39.057Z,101237.44
2022-09-07T17:11:09.379Z,101211.50
2022-09-07T17:13:39.145Z,101242.81
2022-09-07T17:16:11.525Z,101239.28
2022-09-07T17:21:31.288Z,101230.91
2022-09-07T17:24:01.723Z,101244.50
2022-09-07T17:26:31.950Z,101244.50
2022-09-07T17:29:00.922Z,101243.13
2022-09-07T17:34:20.857Z,101232.91
2022-09-07T17:36:49.304Z,101246.50
2022-09-07T17:39:19.095Z,101250.91
2022-09-07T17:41:48.497Z,101251.88
2022-09-07T17:44:17.020Z,101244.50
2022-09-07T17:46:46.579Z,101249.91
2022-09-07T17:49:16.834Z,101247.94
2022-09-07T17:51:46.043Z,101246.06
2022-09-07T17:54:15.976Z,101249.63
2022-09-07T17:56:45.006Z,101242.53
2022-09-07T18:02:03.028Z,101245.63
2022-09-07T18:04:31.166Z,101253.16
2022-09-07T18:06:59.336Z,101247.59
2022-09-07T18:09:27.461Z,101250.63
2022-09-07T18:11:55.566Z,101257.69
2022-09-07T18:14:23.779Z,101256.69
2022-09-07T18:16:52.363Z,101246.78
2022-09-07T18:19:21.922Z,101262.09
2022-09-07T18:21:50.572Z,101261.06
2022-09-07T18:24:23.308Z,101271.16
2022-09-07T18:26:53.460Z,101276.84
2022-09-07T18:29:29.346Z,101280.53
2022-09-07T18:31:59.436Z,101273.13
2022-09-07T18:34:30.934Z,101275.44
2022-09-07T18:37:00.010Z,101270.59
2022-09-07T18:39:28.754Z,101271.44
2022-09-07T18:41:57.257Z,101259.28
2022-09-07T18:47:21.745Z,101275.97
2022-09-07T18:49:54.692Z,101282.22
2022-09-07T18:55:11.975Z,101264.66
2022-09-07T18:57:40.862Z,101256.44
2022-09-07T19:00:11.210Z,101273.13
2022-09-07T19:02:39.430Z,101276.56
2022-09-07T19:07:59.662Z,101273.97
2022-09-07T19:10:27.943Z,101282.78
2022-09-07T19:12:56.934Z,101279.81
2022-09-07T19:15:25.124Z,101263.78
2022-09-07T19:17:53.285Z,101222.00
2022-09-07T19:20:23.109Z,101276.84
2022-09-07T19:22:51.200Z,101190.13
2022-09-07T19:25:20.224Z,101265.19
2022-09-07T19:27:48.355Z,101274.00
2022-09-07T19:30:17.484Z,101276.56
2022-09-07T19:32:45.805Z,101276.56
2022-09-07T19:35:14.028Z,101276.56
2022-09-07T19:37:43.551Z,101276.56
2022-09-07T19:40:17.170Z,101283.63
2022-09-07T19:42:47.693Z,101268.03
2022-09-07T19:45:15.887Z,101276.25
2022-09-07T19:47:44.039Z,101275.97
2022-09-07T19:50:12.518Z,101270.59
2022-09-07T19:52:41.071Z,101272.28
2022-09-07T19:55:11.558Z,101274.00
2022-09-07T19:57:40.033Z,101270.28
2022-09-07T20:00:09.723Z,101269.44
2022-09-07T20:02:38.785Z,101268.59
2022-09-07T20:05:07.899Z,101268.91
2022-09-07T20:07:36.049Z,101271.97
2022-09-07T20:10:04.316Z,101277.38
2022-09-07T20:12:34.078Z,101264.91
2022-09-07T20:15:02.264Z,101275.38
2022-09-07T20:17:35.072Z,101267.16
2022-09-07T20:20:04.017Z,101251.59
2022-09-07T20:22:32.319Z,101282.47
2022-09-07T20:25:00.472Z,101279.09
2022-09-07T20:27:28.911Z,101279.09
2022-09-07T20:29:58.479Z,101283.03
2022-09-07T20:32:28.287Z,101281.34
2022-09-07T20:34:56.540Z,101265.06
2022-09-07T20:37:27.526Z,101283.63
2022-09-07T20:39:55.872Z,101268.31
2022-09-07T20:42:23.972Z,101273.72
2022-09-07T20:44:53.200Z,101278.81
2022-09-07T20:47:22.685Z,101285.34
2022-09-07T20:49:52.224Z,101294.16
2022-09-07T20:52:20.331Z,101291.59
2022-09-07T20:54:48.432Z,101297.09
2022-09-07T20:57:16.483Z,101297.97
2022-09-07T20:59:44.631Z,101302.63
2022-09-07T21:02:12.776Z,101302.63
2022-09-07T21:04:44.479Z,101298.94
2022-09-07T21:07:12.632Z,101312.41
2022-09-07T21:09:40.753Z,101307.16
2022-09-07T21:12:09.218Z,101310.00
2022-09-07T21:14:37.289Z,101308.31
2022-09-07T21:17:05.557Z,101308.31
2022-09-07T21:19:33.680Z,101288.19
2022-09-07T21:22:03.180Z,101307.19
2022-09-07T21:24:31.267Z,101298.22
2022-09-07T21:26:59.488Z,101328.13
2022-09-07T21:29:27.832Z,101320.03
2022-09-07T21:31:56.582Z,101326.44
2022-09-07T21:34:24.905Z,101329.28
2022-09-07T21:36:53.476Z,101327.00
2022-09-07T21:39:22.969Z,101331.97
2022-09-07T21:41:51.220Z,101338.06
2022-09-07T21:44:19.294Z,101297.81
2022-09-07T21:46:47.505Z,101342.59
2022-09-07T21:49:15.636Z,101342.59
2022-09-07T21:51:43.770Z,101355.06
2022-09-07T21:54:11.881Z,101353.38
2022-09-07T21:56:46.393Z,101358.75
2022-09-07T21:59:15.041Z,101355.34
2022-09-07T22:01:43.235Z,101344.91
2022-09-07T22:04:12.160Z,101359.63
2022-09-07T22:06:41.116Z,101364.16
2022-09-07T22:09:09.245Z,101366.13
2022-09-07T22:11:37.375Z,101357.06
2022-09-07T22:14:07.631Z,101362.47
2022-09-07T22:16:36.638Z,101373.50
2022-09-07T22:19:05.191Z,101361.88
2022-09-07T22:21:34.092Z,101353.41
2022-09-07T22:24:03.821Z,101367.84
2022-09-07T22:26:34.080Z,101359.03
2022-09-07T22:29:02.287Z,101376.50
2022-09-07T22:31:33.133Z,101371.38
2022-09-07T22:34:02.781Z,101389.25
2022-09-07T22:36:32.515Z,101375.50
2022-09-07T22:39:02.407Z,101382.88
2022-09-07T22:41:32.641Z,101282.47
2022-09-07T22:44:01.081Z,101384.56
2022-09-07T22:46:32.111Z,101387.28
2022-09-07T22:49:00.392Z,101386.25
2022-09-07T22:51:28.942Z,101391.66
2022-09-07T22:53:57.433Z,101385.13
2022-09-07T22:56:27.773Z,101391.66
2022-09-07T22:58:58.162Z,101382.03
2022-09-07T23:01:26.984Z,101382.88
2022-09-07T23:03:57.198Z,101353.09
2022-09-07T23:06:27.075Z,101393.66
2022-09-07T23:08:56.469Z,101393.66
2022-09-07T23:11:25.237Z,101389.97
2022-09-07T23:13:54.092Z,101363.44
2022-09-07T23:16:22.998Z,101388.28
2022-09-07T23:18:51.465Z,101375.38
2022-09-07T23:21:21.104Z,101382.75
2022-09-07T23:23:53.239Z,101386.25
2022-09-07T23:26:22.074Z,101368.09
2022-09-07T23:28:53.589Z,101386.25
2022-09-07T23:31:22.108Z,101381.16
2022-09-07T23:33:50.699Z,101388.28
2022-09-07T23:36:20.939Z,101390.25
2022-09-07T23:38:49.864Z,101383.84
2022-09-07T23:41:18.640Z,101381.16
2022-09-07T23:43:48.326Z,101372.66
2022-09-07T23:46:16.769Z,101384.72
2022-09-07T23:48:45.929Z,101333.50
2022-09-07T23:51:14.342Z,101371.53
2022-09-07T23:53:43.811Z,101372.25
2022-09-07T23:56:12.304Z,101378.47
2022-09-07T23:58:40.351Z,101385.72
